createdAt,value
2023-01-21T00:01:15.227Z,9.88
2023-01-21T00:03:42.735Z,13.18
2023-01-21T00:06:10.388Z,8.20
2023-01-21T00:08:37.748Z,15.85
2023-01-21T00:11:09.639Z,13.65
2023-01-21T00:13:37.348Z,6.53
2023-01-21T00:16:05.551Z,5.30
2023-01-21T00:18:33.541Z,9.35
2023-01-21T00:21:01.501Z,6.25
2023-01-21T00:23:28.776Z,11.98
2023-01-21T00:26:04.377Z,6.43
2023-01-21T00:28:33.454Z,7.18
2023-01-21T00:31:02.729Z,5.50
2023-01-21T00:33:32.306Z,8.77
2023-01-21T00:36:11.314Z,5.15
2023-01-21T00:38:38.917Z,4.50
2023-01-21T00:41:09.238Z,7.22
2023-01-21T00:43:36.725Z,3.85
2023-01-21T00:46:04.233Z,3.28
2023-01-21T00:48:31.854Z,10.25
2023-01-21T00:51:00.928Z,10.68
2023-01-21T00:53:31.251Z,6.40
2023-01-21T00:56:07.455Z,8.05
2023-01-21T00:58:35.623Z,10.05
2023-01-21T01:01:09.184Z,9.10
2023-01-21T01:03:37.957Z,5.93
2023-01-21T01:06:10.814Z,5.93
2023-01-21T01:08:38.442Z,5.53
2023-01-21T01:11:06.450Z,4.88
2023-01-21T01:13:35.084Z,5.75
2023-01-21T01:16:02.834Z,7.13
2023-01-21T01:18:33.670Z,5.85
2023-01-21T01:21:02.170Z,6.00
2023-01-21T01:23:29.610Z,8.52
2023-01-21T01:26:05.292Z,7.28
2023-01-21T01:28:34.003Z,6.60
2023-01-21T01:31:03.755Z,4.30
2023-01-21T01:33:31.021Z,5.82
2023-01-21T01:36:12.154Z,8.07
2023-01-21T01:38:39.423Z,6.57
2023-01-21T01:41:06.726Z,4.22
2023-01-21T01:43:55.090Z,3.47
2023-01-21T01:46:23.669Z,6.45
2023-01-21T01:49:15.984Z,7.35
2023-01-21T01:51:54.834Z,5.30
2023-01-21T01:54:28.792Z,7.00
2023-01-21T01:56:58.956Z,3.35
2023-01-21T01:59:27.276Z,6.20
2023-01-21T02:01:55.182Z,9.18
2023-01-21T02:04:27.364Z,5.53
2023-01-21T02:06:55.907Z,12.00
2023-01-21T02:09:27.962Z,8.20
2023-01-21T02:11:55.852Z,1.75
2023-01-21T02:14:23.255Z,8.65
2023-01-21T02:17:17.420Z,3.95
2023-01-21T02:20:16.001Z,9.80
2023-01-21T02:23:21.830Z,8.35
2023-01-21T02:26:19.496Z,10.23
2023-01-21T02:29:01.110Z,5.13
2023-01-21T02:31:59.118Z,5.00
2023-01-21T02:34:49.412Z,8.15
2023-01-21T02:37:44.657Z,4.65
2023-01-21T02:40:25.519Z,5.35
2023-01-21T02:43:23.141Z,6.72
2023-01-21T02:45:59.593Z,6.63
2023-01-21T02:48:33.285Z,6.25
2023-01-21T02:51:02.282Z,5.00
2023-01-21T02:53:31.805Z,6.05
2023-01-21T02:56:08.560Z,5.70
2023-01-21T02:58:39.291Z,6.85
2023-01-21T03:01:24.538Z,4.15
2023-01-21T03:04:19.789Z,5.90
2023-01-21T03:06:50.424Z,13.07
2023-01-21T03:09:26.911Z,6.68
2023-01-21T03:12:09.056Z,6.35
2023-01-21T03:15:23.056Z,6.38
2023-01-21T03:17:57.782Z,5.78
2023-01-21T03:20:30.763Z,3.03
2023-01-21T03:23:05.690Z,5.78
2023-01-21T03:25:35.236Z,3.50
2023-01-21T03:28:07.942Z,8.32
2023-01-21T03:30:40.291Z,8.95
2023-01-21T03:33:09.712Z,9.32
2023-01-21T03:35:41.165Z,8.45
2023-01-21T03:38:35.241Z,6.50
2023-01-21T03:41:09.696Z,8.68
2023-01-21T03:43:37.028Z,7.28
2023-01-21T03:46:15.196Z,6.70
2023-01-21T03:48:58.552Z,4.38
2023-01-21T03:51:49.558Z,5.57
2023-01-21T03:54:16.925Z,6.22
2023-01-21T03:56:44.116Z,7.15
2023-01-21T03:59:11.894Z,5.28
2023-01-21T04:01:39.712Z,3.90
2023-01-21T04:04:07.582Z,8.77
2023-01-21T04:06:36.135Z,5.82
2023-01-21T04:09:05.078Z,6.30
2023-01-21T04:11:32.641Z,5.93
2023-01-21T04:14:00.179Z,3.85
2023-01-21T04:16:27.378Z,10.93
2023-01-21T04:18:54.591Z,2.80
2023-01-21T04:21:21.777Z,6.75
2023-01-21T04:23:49.159Z,7.28
2023-01-21T04:26:16.637Z,8.23
2023-01-21T04:28:44.057Z,4.22
2023-01-21T04:31:11.264Z,15.25
2023-01-21T04:33:38.780Z,6.57
2023-01-21T04:36:06.178Z,5.07
2023-01-21T04:38:33.535Z,8.82
2023-01-21T04:41:00.705Z,5.53
2023-01-21T04:43:27.904Z,8.27
2023-01-21T04:45:55.098Z,5.97
2023-01-21T04:48:22.317Z,8.52
2023-01-21T04:50:49.540Z,6.63
2023-01-21T04:53:16.732Z,8.18
2023-01-21T04:55:43.881Z,8.02
2023-01-21T04:58:11.063Z,7.07
2023-01-21T05:00:38.412Z,6.00
2023-01-21T05:03:05.763Z,6.28
2023-01-21T05:05:32.914Z,10.38
2023-01-21T05:08:00.192Z,6.18
2023-01-21T05:10:27.433Z,6.70
2023-01-21T05:12:54.622Z,7.50
2023-01-21T05:15:22.010Z,6.25
2023-01-21T05:17:49.218Z,5.82
2023-01-21T05:20:17.357Z,4.78
2023-01-21T05:22:48.877Z,9.95
2023-01-21T05:25:16.847Z,9.00
2023-01-21T05:27:44.196Z,5.55
2023-01-21T05:30:11.743Z,8.60
2023-01-21T05:32:39.941Z,9.55
2023-01-21T05:35:07.560Z,6.88
2023-01-21T05:37:34.745Z,6.72
2023-01-21T05:40:01.936Z,6.25
2023-01-21T05:42:29.108Z,7.05
2023-01-21T05:44:56.780Z,5.43
2023-01-21T05:47:23.932Z,9.23
2023-01-21T05:49:51.117Z,4.78
2023-01-21T05:52:18.421Z,9.05
2023-01-21T05:55:00.542Z,5.10
2023-01-21T05:57:28.871Z,5.65
2023-01-21T05:59:56.152Z,4.75
2023-01-21T06:02:23.599Z,6.05
2023-01-21T06:04:50.797Z,2.95
2023-01-21T06:07:18.002Z,4.95
2023-01-21T06:09:45.234Z,6.35
2023-01-21T06:12:12.427Z,12.02
2023-01-21T06:14:39.694Z,9.38
2023-01-21T06:17:06.889Z,6.53
2023-01-21T06:19:34.173Z,5.40
2023-01-21T06:22:01.339Z,7.50
2023-01-21T06:24:28.493Z,4.13
2023-01-21T06:26:55.698Z,6.38
2023-01-21T06:29:23.011Z,8.35
2023-01-21T06:31:50.273Z,6.85
2023-01-21T06:34:17.578Z,5.85
2023-01-21T06:36:44.826Z,7.03
2023-01-21T06:39:12.148Z,9.32
2023-01-21T06:41:39.702Z,6.55
2023-01-21T06:44:07.179Z,11.38
2023-01-21T06:46:34.454Z,6.95
2023-01-21T06:49:01.715Z,10.02
2023-01-21T06:51:28.903Z,8.25
2023-01-21T06:53:56.060Z,7.43
2023-01-21T06:56:23.228Z,9.85
2023-01-21T06:58:50.442Z,11.02
2023-01-21T07:01:17.651Z,10.02
2023-01-21T07:03:44.865Z,7.50
2023-01-21T07:06:12.170Z,8.40
2023-01-21T07:08:39.347Z,10.75
2023-01-21T07:11:06.583Z,13.85
2023-01-21T07:13:33.779Z,10.93
2023-01-21T07:16:02.079Z,11.75
2023-01-21T07:18:29.455Z,9.50
2023-01-21T07:20:57.496Z,7.60
2023-01-21T07:23:24.797Z,9.50
2023-01-21T07:25:52.047Z,11.35
2023-01-21T07:28:19.390Z,10.45
2023-01-21T07:30:46.596Z,14.20
2023-01-21T07:33:13.850Z,13.55
2023-01-21T07:35:41.186Z,9.38
2023-01-21T07:38:08.342Z,8.48
2023-01-21T07:40:35.466Z,8.30
2023-01-21T07:43:02.672Z,9.18
2023-01-21T07:45:30.362Z,8.43
2023-01-21T07:47:57.529Z,9.65
2023-01-21T07:50:24.692Z,8.88
2023-01-21T07:52:54.655Z,7.35
2023-01-21T07:55:22.964Z,10.02
2023-01-21T07:57:50.138Z,10.85
2023-01-21T08:00:18.060Z,13.13
2023-01-21T08:02:45.277Z,14.40
2023-01-21T08:05:12.516Z,8.38
2023-01-21T08:07:39.678Z,11.20
2023-01-21T08:10:07.008Z,11.18
2023-01-21T08:12:34.314Z,14.35
2023-01-21T08:15:01.577Z,10.40
2023-01-21T08:17:28.795Z,9.68
2023-01-21T08:19:56.479Z,8.50
2023-01-21T08:22:25.838Z,10.50
2023-01-21T08:24:53.011Z,10.68
2023-01-21T08:27:20.237Z,12.23
2023-01-21T08:29:48.621Z,11.98
2023-01-21T08:32:16.149Z,10.07
2023-01-21T08:34:43.446Z,13.77
2023-01-21T08:37:10.928Z,12.02
2023-01-21T08:39:38.138Z,10.98
2023-01-21T08:42:05.352Z,8.60
2023-01-21T08:44:32.553Z,11.68
2023-01-21T08:46:59.756Z,12.82
2023-01-21T08:49:27.000Z,9.43
2023-01-21T08:51:54.429Z,14.38
2023-01-21T08:54:21.683Z,12.80
2023-01-21T08:56:48.925Z,12.27
2023-01-21T08:59:17.016Z,8.75
2023-01-21T09:01:44.273Z,10.52
2023-01-21T09:04:11.498Z,16.70
2023-01-21T09:06:38.761Z,13.45
2023-01-21T09:09:06.112Z,12.68
2023-01-21T09:11:34.105Z,13.75
2023-01-21T09:14:03.611Z,11.98
2023-01-21T09:16:31.906Z,13.88
2023-01-21T09:19:00.332Z,16.20
2023-01-21T09:21:27.788Z,12.93
2023-01-21T09:23:55.524Z,17.15
2023-01-21T09:26:24.663Z,15.32
2023-01-21T09:29:01.548Z,12.18
2023-01-21T09:31:30.566Z,16.60
2023-01-21T09:34:03.743Z,15.38
2023-01-21T09:36:33.329Z,12.88
2023-01-21T09:39:00.983Z,13.35
2023-01-21T09:41:45.706Z,13.93
2023-01-21T09:47:23.622Z,14.85
2023-01-21T09:49:55.856Z,16.23
2023-01-21T09:52:41.666Z,13.45
2023-01-21T09:55:20.042Z,13.57
2023-01-21T09:58:35.989Z,26.40
2023-01-21T10:01:08.528Z,15.57
2023-01-21T10:03:48.164Z,14.57
2023-01-21T10:06:38.516Z,18.35
2023-01-21T10:09:27.355Z,24.42
2023-01-21T10:12:16.444Z,17.52
2023-01-21T10:14:54.000Z,20.13
2023-01-21T10:17:33.261Z,17.35
2023-01-21T10:20:28.206Z,18.95
2023-01-21T10:25:36.803Z,10.60
2023-01-21T10:28:33.017Z,14.93
2023-01-21T10:31:11.848Z,19.52
2023-01-21T10:33:39.065Z,16.63
2023-01-21T10:36:30.448Z,24.15
2023-01-21T10:39:16.463Z,22.75
2023-01-21T10:41:55.559Z,20.75
2023-01-21T10:45:00.703Z,18.88
2023-01-21T10:48:06.107Z,22.92
2023-01-21T10:53:44.318Z,18.77
2023-01-21T10:56:40.690Z,16.83
2023-01-21T10:59:13.020Z,16.75
2023-01-21T11:01:46.456Z,18.45
2023-01-21T11:04:18.940Z,19.60
2023-01-21T11:06:52.559Z,22.63
2023-01-21T11:09:19.919Z,22.85
2023-01-21T11:11:47.457Z,21.98
2023-01-21T11:14:14.682Z,20.98
2023-01-21T11:16:50.093Z,18.63
2023-01-21T11:19:31.770Z,19.70
2023-01-21T11:22:03.954Z,21.58
2023-01-21T11:24:41.422Z,18.35
2023-01-21T11:27:33.503Z,15.75
2023-01-21T11:30:01.213Z,15.25
2023-01-21T11:32:30.133Z,17.30
2023-01-21T11:35:21.816Z,22.83
2023-01-21T11:37:49.326Z,20.02
2023-01-21T11:40:25.408Z,17.25
2023-01-21T11:42:55.093Z,16.10
2023-01-21T11:45:36.817Z,19.73
2023-01-21T11:48:36.834Z,25.40
2023-01-21T11:51:07.726Z,20.55
2023-01-21T11:53:35.245Z,24.48
2023-01-21T11:56:03.875Z,25.42
2023-01-21T11:58:32.750Z,21.15
2023-01-21T12:01:03.315Z,18.05
2023-01-21T12:03:35.335Z,21.55
2023-01-21T12:06:02.995Z,21.88
2023-01-21T12:08:33.419Z,25.05
2023-01-21T12:11:02.666Z,22.33
2023-01-21T12:14:08.300Z,18.40
2023-01-21T12:16:53.271Z,22.30
2023-01-21T12:19:53.309Z,20.90
2023-01-21T12:22:57.295Z,22.60
2023-01-21T12:25:31.955Z,13.40
2023-01-21T12:28:23.830Z,22.25
2023-01-21T12:31:10.251Z,20.15
2023-01-21T12:34:09.270Z,18.95
2023-01-21T12:36:46.898Z,13.85
2023-01-21T12:39:18.935Z,15.93
2023-01-21T12:41:53.907Z,15.60
2023-01-21T12:44:36.751Z,14.77
2023-01-21T12:47:21.447Z,17.83
2023-01-21T12:52:40.783Z,21.58
2023-01-21T12:55:27.024Z,16.55
2023-01-21T12:58:01.435Z,13.63
2023-01-21T13:00:39.145Z,13.98
2023-01-21T13:03:24.537Z,15.38
2023-01-21T13:06:07.967Z,16.20
2023-01-21T13:08:44.101Z,14.73
2023-01-21T13:11:19.615Z,18.98
2023-01-21T13:14:17.326Z,10.10
2023-01-21T13:16:53.103Z,16.13
2023-01-21T13:19:20.675Z,9.73
2023-01-21T13:22:02.130Z,11.90
2023-01-21T13:24:35.293Z,12.90
2023-01-21T13:27:16.901Z,13.25
2023-01-21T13:30:17.845Z,11.45
2023-01-21T13:33:07.174Z,15.48
2023-01-21T13:36:06.418Z,10.98
2023-01-21T13:38:37.019Z,14.82
2023-01-21T13:41:18.748Z,11.88
2023-01-21T13:44:18.521Z,20.13
2023-01-21T13:47:00.633Z,11.77
2023-01-21T13:49:50.880Z,9.77
2023-01-21T13:52:28.792Z,7.03
2023-01-21T13:55:08.729Z,9.38
2023-01-21T13:57:51.545Z,8.95
2023-01-21T14:00:26.832Z,7.75
2023-01-21T14:03:09.129Z,9.80
2023-01-21T14:05:53.073Z,10.23
2023-01-21T14:08:29.880Z,10.70
2023-01-21T14:11:05.052Z,7.55
2023-01-21T14:13:40.511Z,11.15
2023-01-21T14:16:25.272Z,13.32
2023-01-21T14:22:02.651Z,11.30
2023-01-21T14:25:01.252Z,10.43
2023-01-21T14:27:53.818Z,7.00
2023-01-21T14:30:50.658Z,7.35
2023-01-21T14:33:28.932Z,12.93
2023-01-21T14:36:12.656Z,10.13
2023-01-21T14:39:07.425Z,11.63
2023-01-21T14:42:09.652Z,11.35
2023-01-21T14:44:49.758Z,10.38
2023-01-21T14:47:31.952Z,11.70
2023-01-21T14:50:00.662Z,12.15
2023-01-21T14:52:34.958Z,10.10
2023-01-21T14:55:03.134Z,11.23
2023-01-21T14:57:37.609Z,12.73
2023-01-21T15:00:46.837Z,11.77
2023-01-21T15:03:28.995Z,10.07
2023-01-21T15:06:09.267Z,8.90
2023-01-21T15:08:47.178Z,9.27
2023-01-21T15:11:21.674Z,10.73
2023-01-21T15:14:02.277Z,7.85
2023-01-21T15:16:42.137Z,10.30
2023-01-21T15:19:15.097Z,13.55
2023-01-21T15:22:18.007Z,12.45
2023-01-21T15:25:03.351Z,9.52
2023-01-21T15:27:33.157Z,16.63
2023-01-21T15:30:04.192Z,5.57
2023-01-21T15:32:34.278Z,8.95
2023-01-21T15:35:19.481Z,5.93
2023-01-21T15:38:04.079Z,10.18
2023-01-21T15:40:53.562Z,8.00
2023-01-21T15:43:52.414Z,10.70
2023-01-21T15:46:41.766Z,7.13
2023-01-21T15:49:31.527Z,7.25
2023-01-21T15:52:23.980Z,6.50
2023-01-21T15:55:01.774Z,8.05
2023-01-21T15:57:54.891Z,5.10
2023-01-21T16:01:08.024Z,5.15
2023-01-21T16:03:44.623Z,6.70
2023-01-21T16:06:32.175Z,7.55
2023-01-21T16:09:16.140Z,6.80
2023-01-21T16:12:01.139Z,10.17
2023-01-21T16:15:01.540Z,10.02
2023-01-21T16:18:08.167Z,4.97
2023-01-21T16:20:36.796Z,5.95
2023-01-21T16:23:08.305Z,7.35
2023-01-21T16:25:46.899Z,4.68
2023-01-21T16:28:15.834Z,5.63
2023-01-21T16:30:56.643Z,8.02
2023-01-21T16:33:25.408Z,6.65
2023-01-21T16:36:00.327Z,9.10
2023-01-21T16:38:31.372Z,6.78
2023-01-21T16:41:08.831Z,9.43
2023-01-21T16:43:50.117Z,8.88
2023-01-21T16:46:24.460Z,7.60
2023-01-21T16:48:57.888Z,7.45
2023-01-21T16:51:36.976Z,8.35
2023-01-21T16:54:34.965Z,8.10
2023-01-21T16:57:20.553Z,9.60
2023-01-21T16:59:49.241Z,9.32
2023-01-21T17:02:25.931Z,8.55
2023-01-21T17:04:57.782Z,8.13
2023-01-21T17:07:31.687Z,8.35
2023-01-21T17:10:02.975Z,7.68
2023-01-21T17:12:34.671Z,8.77
2023-01-21T17:15:20.137Z,7.47
2023-01-21T17:17:48.934Z,5.97
2023-01-21T17:20:35.744Z,8.57
2023-01-21T17:23:14.016Z,9.95
2023-01-21T17:25:42.730Z,7.05
2023-01-21T17:28:39.991Z,7.95
2023-01-21T17:31:18.149Z,7.53
2023-01-21T17:34:00.809Z,8.88
2023-01-21T17:36:35.522Z,7.35
2023-01-21T17:39:07.348Z,9.75
2023-01-21T17:41:38.146Z,10.20
2023-01-21T17:44:22.977Z,8.77
2023-01-21T17:46:55.451Z,9.13
2023-01-21T17:49:26.704Z,7.10
2023-01-21T17:51:57.056Z,7.90
2023-01-21T17:54:27.660Z,6.60
2023-01-21T17:57:00.865Z,12.90
2023-01-21T17:59:34.975Z,9.68
2023-01-21T18:02:05.629Z,16.10
2023-01-21T18:04:33.585Z,10.90
2023-01-21T18:07:02.362Z,10.95
2023-01-21T18:09:34.602Z,18.58
2023-01-21T18:12:03.230Z,11.30
2023-01-21T18:14:35.065Z,10.80
2023-01-21T18:17:19.451Z,13.35
2023-01-21T18:19:47.368Z,16.70
2023-01-21T18:22:22.491Z,17.27
2023-01-21T18:24:50.141Z,17.52
2023-01-21T18:27:18.042Z,12.50
2023-01-21T18:29:45.996Z,14.20
2023-01-21T18:32:17.320Z,17.58
2023-01-21T18:34:47.022Z,21.40
2023-01-21T18:37:17.266Z,18.85
2023-01-21T18:39:45.305Z,16.25
2023-01-21T18:42:18.490Z,18.10
2023-01-21T18:44:49.455Z,14.95
2023-01-21T18:47:18.477Z,15.40
2023-01-21T18:49:49.592Z,19.13
2023-01-21T18:52:19.864Z,13.30
2023-01-21T18:54:48.065Z,20.05
2023-01-21T18:57:20.285Z,22.05
2023-01-21T18:59:48.396Z,21.17
2023-01-21T19:02:18.931Z,16.80
2023-01-21T19:04:47.810Z,20.65
2023-01-21T19:07:22.234Z,21.15
2023-01-21T19:09:51.334Z,18.88
2023-01-21T19:12:24.571Z,21.63
2023-01-21T19:14:53.734Z,21.60
2023-01-21T19:17:30.342Z,23.67
2023-01-21T19:19:58.562Z,26.77
2023-01-21T19:22:26.500Z,25.50
2023-01-21T19:24:54.269Z,27.00
2023-01-21T19:27:35.752Z,30.08
2023-01-21T19:30:11.405Z,25.15
2023-01-21T19:32:39.604Z,28.15
2023-01-21T19:35:08.027Z,30.50
2023-01-21T19:37:45.139Z,29.17
2023-01-21T19:40:21.665Z,24.95
2023-01-21T19:42:49.599Z,29.60
2023-01-21T19:45:18.979Z,23.52
2023-01-21T19:47:49.680Z,28.77
2023-01-21T19:50:20.392Z,27.42
2023-01-21T19:52:51.008Z,26.58
2023-01-21T19:55:25.953Z,28.77
2023-01-21T19:58:00.388Z,29.02
2023-01-21T20:03:01.880Z,29.10
2023-01-21T20:05:34.272Z,27.25
2023-01-21T20:08:02.624Z,33.35
2023-01-21T20:10:31.343Z,27.17
2023-01-21T20:12:59.765Z,25.35
2023-01-21T20:15:32.533Z,30.50
2023-01-21T20:18:02.567Z,28.92
2023-01-21T20:20:32.223Z,33.83
2023-01-21T20:23:01.036Z,35.60
2023-01-21T20:25:39.232Z,30.15
2023-01-21T20:28:30.914Z,27.67
2023-01-21T20:31:02.841Z,30.95
2023-01-21T20:33:30.676Z,29.92
2023-01-21T20:35:58.848Z,31.90
2023-01-21T20:38:32.219Z,34.10
2023-01-21T20:41:01.299Z,33.22
2023-01-21T20:43:29.574Z,32.60
2023-01-21T20:46:02.151Z,29.98
2023-01-21T20:48:36.507Z,33.05
2023-01-21T20:53:33.596Z,29.17
2023-01-21T20:56:07.371Z,32.17
2023-01-21T20:58:38.514Z,33.63
2023-01-21T21:04:09.693Z,36.38
2023-01-21T21:06:38.828Z,34.17
2023-01-21T21:09:13.961Z,32.13
2023-01-21T21:12:03.122Z,36.75
2023-01-21T21:14:36.575Z,31.95
2023-01-21T21:17:23.228Z,28.50
2023-01-21T21:20:40.931Z,29.30
2023-01-21T21:23:23.984Z,40.35
2023-01-21T21:25:56.176Z,30.35
2023-01-21T21:29:14.688Z,32.00
2023-01-21T21:31:47.914Z,35.72
2023-01-21T21:34:24.884Z,34.38
2023-01-21T21:36:54.213Z,27.67
2023-01-21T21:39:37.964Z,34.22
2023-01-21T21:42:25.097Z,31.33
2023-01-21T21:44:54.398Z,35.95
2023-01-21T21:47:42.126Z,30.90
2023-01-21T21:50:17.644Z,37.15
2023-01-21T21:52:58.200Z,35.78
2023-01-21T21:56:19.886Z,30.80
2023-01-21T21:58:49.562Z,33.28
2023-01-21T22:01:23.884Z,38.20
2023-01-21T22:04:06.228Z,41.80
2023-01-21T22:06:50.110Z,47.30
2023-01-21T22:09:34.579Z,31.05
2023-01-21T22:12:20.409Z,33.97
2023-01-21T22:14:48.972Z,34.42
2023-01-21T22:17:37.059Z,38.33
2023-01-21T22:22:58.387Z,35.90
2023-01-21T22:25:37.576Z,34.95
2023-01-21T22:28:26.783Z,38.92
2023-01-21T22:31:12.791Z,46.45
2023-01-21T22:33:56.261Z,38.88
2023-01-21T22:36:59.299Z,36.55
2023-01-21T22:39:57.611Z,39.53
2023-01-21T22:42:26.600Z,36.70
2023-01-21T22:45:18.226Z,41.03
2023-01-21T22:47:50.602Z,38.22
2023-01-21T22:50:33.544Z,37.47
2023-01-21T22:53:32.104Z,37.38
2023-01-21T22:56:05.527Z,33.08
2023-01-21T22:58:49.275Z,37.00
2023-01-21T23:01:27.019Z,40.85
2023-01-21T23:04:00.373Z,34.75
2023-01-21T23:06:51.739Z,37.85
2023-01-21T23:09:23.409Z,39.05
2023-01-21T23:12:00.464Z,30.58
2023-01-21T23:14:35.836Z,39.00
2023-01-21T23:17:31.551Z,34.92
2023-01-21T23:20:01.509Z,32.20
2023-01-21T23:22:34.720Z,32.35
2023-01-21T23:25:27.757Z,29.98
2023-01-21T23:27:59.101Z,32.33
2023-01-21T23:30:28.607Z,28.10
2023-01-21T23:32:58.077Z,36.97
2023-01-21T23:36:16.416Z,33.20
2023-01-21T23:38:49.944Z,31.95
2023-01-21T23:42:09.796Z,32.90
2023-01-21T23:44:37.667Z,36.13
2023-01-21T23:47:05.230Z,28.90
2023-01-21T23:49:35.228Z,33.80
2023-01-21T23:52:05.914Z,33.00
2023-01-21T23:54:33.965Z,36.97
2023-01-21T23:57:01.672Z,32.33
2023-01-21T23:59:29.070Z,29.58
